Time;durP1;ratioP1;P1;durP2;ratioP2;P2;SDS_P1;SDS_P2;PMS_P1;PMS_P2;Temp;Humidity;BMP_temperature;BMP_pressure;BME280_temperature;BME280_humidity;BME280_pressure;Samples;Min_cycle;Max_cycle;Signal;HPM_P1;HPM_P2
2021/10/24 07:10:27;;;;;;;;;6.00;6.00;;;;;;;;5140663;27;112018;-73
2021/10/24 07:29:25;;;;;;;;;2.75;2.75;;;;;;;;5140803;27;111846;-75
2021/10/24 07:31:51;;;;;;;;;4.00;3.25;;;;;;;;5119425;27;112762;-75
2021/10/24 07:34:16;;;;;;;;;4.00;3.00;;;;;;;;5101795;27;112945;-75
2021/10/24 07:36:41;;;;;;;;;2.00;2.00;;;;;;;;5121010;27;111923;-74
2021/10/24 07:39:06;;;;;;;;;3.00;3.00;;;;;;;;5119444;27;112575;-74
2021/10/24 07:41:32;;;;;;;;;3.25;3.00;;;;;;;;5115019;27;112148;-75
2021/10/24 07:43:57;;;;;;;;;4.75;4.50;;;;;;;;5120346;27;112832;-74
2021/10/24 07:46:22;;;;;;;;;3.00;2.50;;;;;;;;5119234;27;113050;-74
2021/10/24 07:48:48;;;;;;;;;3.00;2.00;;;;;;;;5123648;27;111889;-75
2021/10/24 07:51:13;;;;;;;;;3.00;2.00;;;;;;;;5120074;27;112317;-74
2021/10/24 07:53:39;;;;;;;;;3.25;2.00;;;;;;;;5102022;27;111919;-75
2021/10/24 07:56:04;;;;;;;;;2.00;2.00;;;;;;;;5101776;27;113466;-75
2021/10/24 07:58:29;;;;;;;;;1.67;1.67;;;;;;;;5110708;27;112873;-76
2021/10/24 08:00:55;;;;;;;;;2.00;1.33;;;;;;;;5099686;27;112180;-77
2021/10/24 08:03:21;;;;;;;;;2.00;2.00;;;;;;;;5100087;27;111882;-78
2021/10/24 08:05:46;;;;;;;;;3.00;3.00;;;;;;;;5098647;27;113476;-80
2021/10/24 08:08:11;;;;;;;;;4.50;4.00;;;;;;;;5082972;27;111980;-75
2021/10/24 08:10:37;;;;;;;;;2.00;2.00;;;;;;;;5103781;27;112013;-76
2021/10/24 08:13:02;;;;;;;;;2.00;1.50;;;;;;;;5100436;27;112104;-76
2021/10/24 08:15:28;;;;;;;;;0.00;0.00;;;;;;;;5106254;27;112153;-77
2021/10/24 08:17:53;;;;;;;;;3.00;3.00;;;;;;;;5116200;27;112534;-79
2021/10/24 08:20:18;;;;;;;;;2.00;2.00;;;;;;;;5120863;27;112254;-77
2021/10/24 08:22:44;;;;;;;;;3.75;2.75;;;;;;;;5120902;27;112200;-76
2021/10/24 08:25:09;;;;;;;;;3.00;3.00;;;;;;;;5119381;27;113196;-76
2021/10/24 08:27:35;;;;;;;;;2.50;2.00;;;;;;;;5119225;27;111744;-77
2021/10/24 08:30:01;;;;;;;;;3.00;3.00;;;;;;;;5114060;27;112878;-77
2021/10/24 08:32:26;;;;;;;;;4.00;4.00;;;;;;;;5122466;27;112403;-77
2021/10/24 08:34:51;;;;;;;;;3.00;3.00;;;;;;;;5119586;27;112308;-76
2021/10/24 08:37:19;;;;;;;;;3.00;2.00;;;;;;;;5118319;27;113118;-76
2021/10/24 08:39:48;;;;;;;;;3.25;3.00;;;;;;;;5112097;27;111964;-74
2021/10/24 08:42:13;;;;;;;;;4.50;3.00;;;;;;;;5105915;27;112994;-72
2021/10/24 08:44:39;;;;;;;;;4.00;2.00;;;;;;;;5099434;27;112706;-73
2021/10/24 08:47:04;;;;;;;;;4.25;3.00;;;;;;;;5105961;27;111741;-72
2021/10/24 08:49:29;;;;;;;;;3.00;3.00;;;;;;;;5105456;27;112790;-72
2021/10/24 08:51:55;;;;;;;;;2.25;2.25;;;;;;;;5093698;27;112375;-69
2021/10/24 08:54:24;;;;;;;;;7.25;3.25;;;;;;;;5094290;27;111747;-70
2021/10/24 08:56:49;;;;;;;;;2.75;2.00;;;;;;;;5065357;27;115284;-72
2021/10/24 08:59:15;;;;;;;;;4.75;3.50;;;;;;;;5096551;27;112352;-71
2021/10/24 09:01:53;;;;;;;;;4.00;4.00;;;;;;;;5101595;27;112358;-69
2021/10/24 09:04:19;;;;;;;;;3.00;2.75;;;;;;;;5104658;27;112627;-67
2021/10/24 09:06:57;;;;;;;;;3.25;2.25;;;;;;;;5100997;27;111800;-67
2021/10/24 09:09:24;;;;;;;;;2.00;2.00;;;;;;;;5093182;27;112486;-68
2021/10/24 09:12:00;;;;;;;;;3.50;3.00;;;;;;;;5099771;27;113912;-68
2021/10/24 09:14:44;;;;;;;;;4.25;3.50;;;;;;;;5104195;27;111658;-72
2021/10/24 09:17:11;;;;;;;;;2.00;2.00;;;;;;;;5107691;27;112943;-71
2021/10/24 09:19:41;;;;;;;;;2.00;2.00;;;;;;;;5104396;27;112187;-71
2021/10/24 09:22:13;;;;;;;;;2.25;2.25;;;;;;;;5099737;27;111923;-68
2021/10/24 09:24:38;;;;;;;;;5.00;3.75;;;;;;;;5092682;27;112453;-72
2021/10/24 09:27:08;;;;;;;;;3.00;3.00;;;;;;;;5091702;27;112782;-71
2021/10/24 09:29:34;;;;;;;;;3.00;3.00;;;;;;;;5093630;27;112505;-71
2021/10/24 09:32:00;;;;;;;;;4.00;4.00;;;;;;;;5092287;27;112375;-70
2021/10/24 09:34:26;;;;;;;;;2.00;2.00;;;;;;;;5091521;27;111891;-72
2021/10/24 09:36:59;;;;;;;;;2.33;2.33;;;;;;;;5091000;27;113209;-71
2021/10/24 09:39:27;;;;;;;;;2.67;2.00;;;;;;;;5089834;27;112409;-73
2021/10/24 09:42:08;;;;;;;;;4.33;2.67;;;;;;;;5082690;27;112266;-75
2021/10/24 09:44:33;;;;;;;;;1.00;1.00;;;;;;;;5081336;27;112454;-73
2021/10/24 09:46:59;;;;;;;;;0.67;0.67;;;;;;;;5083468;27;112128;-75
2021/10/24 09:49:24;;;;;;;;;1.00;1.00;;;;;;;;5082808;27;111948;-76
2021/10/24 09:51:51;;;;;;;;;2.00;2.00;;;;;;;;5081309;27;113660;-75
2021/10/24 09:54:21;;;;;;;;;2.00;0.33;;;;;;;;5084229;27;111811;-76
2021/10/24 09:56:47;;;;;;;;;1.75;1.75;;;;;;;;5083599;27;112248;-75
2021/10/24 09:59:13;;;;;;;;;0.75;0.75;;;;;;;;5086608;27;113856;-76
2021/10/24 10:01:39;;;;;;;;;2.50;1.75;;;;;;;;5083760;27;112459;-76
2021/10/24 10:04:04;;;;;;;;;1.00;1.00;;;;;;;;5082791;27;112358;-76
2021/10/24 10:06:30;;;;;;;;;1.25;1.25;;;;;;;;5089807;27;112278;-76
2021/10/24 10:08:56;;;;;;;;;3.00;2.00;;;;;;;;5104501;27;112055;-73
2021/10/24 10:11:30;;;;;;;;;2.00;1.00;;;;;;;;5082764;27;112791;-73
2021/10/24 10:14:01;;;;;;;;;1.75;1.75;;;;;;;;5083044;27;111674;-75
2021/10/24 10:16:32;;;;;;;;;2.00;1.25;;;;;;;;5083952;27;112044;-74
2021/10/24 10:18:58;;;;;;;;;3.00;2.00;;;;;;;;5088008;27;112605;-69
2021/10/24 10:21:29;;;;;;;;;2.00;1.00;;;;;;;;5095940;27;112229;-71
2021/10/24 10:23:54;;;;;;;;;2.00;2.00;;;;;;;;5092101;27;112399;-70
2021/10/24 10:26:33;;;;;;;;;2.00;1.00;;;;;;;;5089916;27;111849;-71
2021/10/24 10:28:59;;;;;;;;;1.67;1.67;;;;;;;;5089400;27;113045;-69
2021/10/24 10:31:24;;;;;;;;;1.00;1.00;;;;;;;;5089846;27;113760;-69
2021/10/24 10:33:59;;;;;;;;;1.33;1.33;;;;;;;;5084450;27;112060;-77
2021/10/24 10:36:44;;;;;;;;;1.00;1.00;;;;;;;;5074337;27;114558;-77
2021/10/24 10:39:28;;;;;;;;;1.00;1.00;;;;;;;;5090834;27;112308;-76
2021/10/24 10:41:53;;;;;;;;;1.00;1.00;;;;;;;;5073952;27;112834;-74
2021/10/24 10:44:19;;;;;;;;;1.00;1.00;;;;;;;;5093755;27;113399;-74
2021/10/24 10:46:44;;;;;;;;;3.00;2.00;;;;;;;;5091666;27;112443;-74
2021/10/24 10:49:30;;;;;;;;;2.00;1.33;;;;;;;;5089520;27;111999;-73
2021/10/24 10:51:55;;;;;;;;;1.67;1.00;;;;;;;;5090491;27;112574;-73
2021/10/24 10:54:21;;;;;;;;;2.00;2.00;;;;;;;;5090855;27;112291;-74
2021/10/24 10:56:46;;;;;;;;;1.00;1.00;;;;;;;;5103261;27;112717;-73
2021/10/24 10:59:31;;;;;;;;;1.00;1.00;;;;;;;;5100847;27;112276;-73
2021/10/24 11:02:16;;;;;;;;;1.00;1.00;;;;;;;;5102357;27;112119;-74
2021/10/24 11:04:52;;;;;;;;;1.67;1.67;;;;;;;;5103481;27;113471;-75
2021/10/24 11:07:37;;;;;;;;;0.67;0.67;;;;;;;;5106847;27;112418;-74
2021/10/24 11:10:03;;;;;;;;;1.00;1.00;;;;;;;;5103603;27;111839;-74
2021/10/24 11:12:38;;;;;;;;;3.00;1.00;;;;;;;;5101969;27;112331;-75
2021/10/24 11:15:14;;;;;;;;;2.00;2.00;;;;;;;;5103755;27;111886;-74
2021/10/24 11:17:40;;;;;;;;;1.67;1.67;;;;;;;;5102886;27;113292;-74
2021/10/24 11:20:15;;;;;;;;;1.25;1.00;;;;;;;;5093150;27;112593;-73
2021/10/24 11:22:53;;;;;;;;;2.00;2.00;;;;;;;;5103587;27;112174;-74
2021/10/24 11:25:25;;;;;;;;;2.00;1.00;;;;;;;;5103281;27;112080;-73
2021/10/24 11:27:51;;;;;;;;;1.00;1.00;;;;;;;;5096305;27;112655;-73
2021/10/24 11:30:17;;;;;;;;;1.25;1.00;;;;;;;;5107773;27;111759;-74
2021/10/24 11:32:43;;;;;;;;;1.50;1.50;;;;;;;;5102063;27;112527;-74
2021/10/24 11:35:09;;;;;;;;;1.25;1.25;;;;;;;;5102923;27;112022;-74
2021/10/24 11:37:40;;;;;;;;;1.00;1.00;;;;;;;;5102296;27;112174;-74
2021/10/24 11:40:09;;;;;;;;;2.00;1.00;;;;;;;;5102108;27;112463;-75
2021/10/24 11:42:34;;;;;;;;;2.25;1.00;;;;;;;;5102056;27;111868;-74
2021/10/24 11:45:14;;;;;;;;;1.00;1.00;;;;;;;;5083852;27;115588;-76
2021/10/24 11:47:55;;;;;;;;;2.75;1.00;;;;;;;;5101683;27;113010;-75
2021/10/24 11:50:33;;;;;;;;;0.00;0.00;;;;;;;;5106226;27;111796;-75
2021/10/24 11:52:59;;;;;;;;;1.00;1.00;;;;;;;;5100863;27;112491;-74
2021/10/24 11:55:24;;;;;;;;;2.00;1.00;;;;;;;;5103131;27;112047;-74
2021/10/24 12:03:10;;;;;;;;;1.00;1.00;;;;;;;;5102551;27;112116;-75
2021/10/24 12:05:37;;;;;;;;;1.00;1.00;;;;;;;;5102841;27;111974;-73
2021/10/24 12:08:03;;;;;;;;;1.00;1.00;;;;;;;;5101203;27;112533;-75
2021/10/24 12:10:35;;;;;;;;;1.00;1.00;;;;;;;;5102141;27;111811;-75
2021/10/24 12:13:03;;;;;;;;;1.50;1.00;;;;;;;;5104771;27;111875;-75
2021/10/24 12:15:37;;;;;;;;;0.00;0.00;;;;;;;;5103972;27;111961;-75
2021/10/24 12:18:12;;;;;;;;;0.25;0.25;;;;;;;;5105693;27;111831;-76
2021/10/24 12:20:38;;;;;;;;;1.50;1.50;;;;;;;;5085635;27;113771;-74
2021/10/24 12:23:13;;;;;;;;;1.00;1.00;;;;;;;;5105289;27;111759;-74
2021/10/24 12:25:40;;;;;;;;;1.00;1.00;;;;;;;;5105527;27;111860;-75
2021/10/24 12:28:13;;;;;;;;;1.00;1.00;;;;;;;;5104209;27;112547;-75
2021/10/24 12:30:38;;;;;;;;;2.00;1.00;;;;;;;;5105432;27;111924;-74
2021/10/24 12:33:06;;;;;;;;;0.50;0.00;;;;;;;;5105896;27;111927;-74
2021/10/24 12:35:48;;;;;;;;;1.50;0.50;;;;;;;;5102840;27;112717;-75
2021/10/24 12:38:15;;;;;;;;;0.50;0.50;;;;;;;;5099305;27;112204;-74
2021/10/24 12:40:48;;;;;;;;;1.00;1.00;;;;;;;;5104571;27;112783;-76
2021/10/24 17:18:42;;;;;;;;;;;;;;;;;;5112043;27;116443;-73
2021/10/24 17:21:07;;;;;;;;;;;;;;;;;;5129261;27;112894;-73
2021/10/24 17:23:32;;;;;;;;;;;;;;;;;;5128090;27;112114;-74
2021/10/24 17:25:57;;;;;;;;;;;;;;;;;;5126009;27;112096;-73
2021/10/24 17:28:22;;;;;;;;;;;;;;;;;;5107844;27;115295;-71
2021/10/24 17:30:48;;;;;;;;;;;;;;;;;;5129044;27;112148;-72
2021/10/24 17:33:14;;;;;;;;;2.33;2.33;;;;;;;;5128276;27;113063;-72
2021/10/24 17:35:40;;;;;;;;;3.00;2.33;;;;;;;;5110314;27;113943;-71
2021/10/24 17:38:05;;;;;;;;;2.75;2.75;;;;;;;;5132395;27;112526;-71
2021/10/24 17:40:31;;;;;;;;;3.75;3.00;;;;;;;;5127331;27;113059;-70
2021/10/24 17:42:56;;;;;;;;;3.00;3.00;;;;;;;;5111448;27;112211;-68
2021/10/24 17:45:21;;;;;;;;;4.00;3.25;;;;;;;;5131021;27;112809;-68
2021/10/24 17:47:46;;;;;;;;;4.75;1.75;;;;;;;;5128410;27;112400;-69
2021/10/24 17:50:13;;;;;;;;;2.75;2.50;;;;;;;;5128897;27;112150;-68
2021/10/24 17:52:39;;;;;;;;;3.75;2.75;;;;;;;;5130688;27;112119;-69
2021/10/24 17:55:04;;;;;;;;;2.00;2.00;;;;;;;;5127575;27;112972;-68
2021/10/24 17:57:29;;;;;;;;;3.00;3.00;;;;;;;;5128289;27;112173;-69
2021/10/24 17:59:55;;;;;;;;;2.00;2.00;;;;;;;;5132539;27;112706;-69
2021/10/24 18:02:20;;;;;;;;;1.00;1.00;;;;;;;;5127988;27;112338;-69
2021/10/24 18:04:48;;;;;;;;;2.00;2.00;;;;;;;;5128914;27;112877;-68
2021/10/24 18:07:14;;;;;;;;;3.00;3.00;;;;;;;;5129339;27;112444;-70
2021/10/24 18:09:39;;;;;;;;;2.75;2.75;;;;;;;;5123708;27;113259;-71
2021/10/24 18:12:04;;;;;;;;;2.50;2.50;;;;;;;;5117523;27;113082;-71
2021/10/24 18:14:30;;;;;;;;;2.00;2.00;;;;;;;;5126503;27;113434;-71
2021/10/24 18:16:55;;;;;;;;;6.75;2.75;;;;;;;;5108105;27;112359;-70
2021/10/24 18:19:21;;;;;;;;;3.00;3.00;;;;;;;;5118563;27;112066;-71
2021/10/24 18:21:46;;;;;;;;;2.75;2.75;;;;;;;;5039698;27;113094;-69
2021/10/24 18:24:11;;;;;;;;;4.00;4.00;;;;;;;;4983554;27;115085;-71
2021/10/24 18:26:37;;;;;;;;;6.25;3.75;;;;;;;;5046260;27;113020;-69
2021/10/24 18:29:05;;;;;;;;;3.75;2.50;;;;;;;;5049613;27;112737;-70
2021/10/24 18:31:30;;;;;;;;;3.00;3.00;;;;;;;;5026881;27;111772;-70
2021/10/24 18:33:55;;;;;;;;;2.25;2.25;;;;;;;;5022751;27;112287;-70
2021/10/24 18:36:21;;;;;;;;;4.00;4.00;;;;;;;;5023471;27;111748;-70
2021/10/24 18:38:46;;;;;;;;;3.00;2.00;;;;;;;;5021865;27;114882;-70
2021/10/24 18:41:12;;;;;;;;;3.75;3.75;;;;;;;;5022127;28;112926;-72
2021/10/24 18:43:38;;;;;;;;;4.25;3.00;;;;;;;;5025259;28;112878;-70
2021/10/24 18:46:05;;;;;;;;;3.00;3.00;;;;;;;;5022615;28;112474;-68
2021/10/24 18:48:33;;;;;;;;;1.75;1.00;;;;;;;;5021666;28;112121;-77
2021/10/24 18:51:06;;;;;;;;;1.50;1.50;;;;;;;;5022861;28;112275;-74
2021/10/24 18:53:32;;;;;;;;;4.00;1.00;;;;;;;;5019933;28;115341;-71
2021/10/24 18:55:57;;;;;;;;;1.25;1.00;;;;;;;;5023161;28;112165;-73
2021/10/24 18:58:23;;;;;;;;;1.00;1.00;;;;;;;;5023298;28;112099;-73
2021/10/24 19:00:48;;;;;;;;;1.75;1.75;;;;;;;;5022483;28;112530;-73
2021/10/24 19:03:14;;;;;;;;;2.00;2.00;;;;;;;;5023600;28;111859;-72
2021/10/24 19:05:39;;;;;;;;;2.00;2.00;;;;;;;;5025973;28;111752;-72
2021/10/24 19:08:04;;;;;;;;;2.00;2.00;;;;;;;;5023102;28;111742;-73
2021/10/24 19:10:29;;;;;;;;;2.00;2.00;;;;;;;;5022919;28;111912;-72
2021/10/24 19:12:55;;;;;;;;;1.75;1.75;;;;;;;;5021562;28;112474;-74
2021/10/24 19:15:20;;;;;;;;;2.25;1.50;;;;;;;;5022977;28;112278;-74
2021/10/24 19:17:45;;;;;;;;;3.75;1.00;;;;;;;;5024725;27;112128;-73
2021/10/24 19:20:11;;;;;;;;;1.00;1.00;;;;;;;;5030745;27;112836;-75
2021/10/24 19:22:37;;;;;;;;;1.50;1.00;;;;;;;;5029992;27;112199;-73
2021/10/24 19:25:03;;;;;;;;;2.75;2.75;;;;;;;;5030331;27;113726;-73
2021/10/24 19:27:28;;;;;;;;;1.00;1.00;;;;;;;;5028774;27;112216;-74
2021/10/24 19:29:54;;;;;;;;;4.00;2.50;;;;;;;;5030529;27;111881;-73
2021/10/24 19:32:19;;;;;;;;;3.00;1.75;;;;;;;;5029098;27;112616;-73
2021/10/24 19:34:44;;;;;;;;;2.00;1.00;;;;;;;;5031449;27;111899;-73
2021/10/24 19:37:10;;;;;;;;;4.00;4.00;;;;;;;;5032019;27;112261;-72
2021/10/24 19:39:35;;;;;;;;;2.00;1.00;;;;;;;;5028551;27;112348;-73
2021/10/24 19:42:02;;;;;;;;;2.75;1.50;;;;;;;;5030910;27;111932;-72
2021/10/24 19:44:28;;;;;;;;;1.50;1.50;;;;;;;;5032096;27;113292;-73
2021/10/24 19:46:53;;;;;;;;;2.00;2.00;;;;;;;;5032503;27;112537;-73
2021/10/24 19:49:18;;;;;;;;;2.50;2.00;;;;;;;;5030686;27;115093;-72
2021/10/24 19:51:44;;;;;;;;;2.00;2.00;;;;;;;;5030284;27;112459;-73
2021/10/24 19:54:09;;;;;;;;;4.50;2.50;;;;;;;;5030219;27;111991;-73
2021/10/24 19:56:36;;;;;;;;;2.50;2.00;;;;;;;;5031296;27;112378;-72
2021/10/24 19:59:02;;;;;;;;;3.50;2.00;;;;;;;;5029323;27;112770;-75
2021/10/24 20:01:28;;;;;;;;;1.75;1.00;;;;;;;;5030934;27;112047;-73
2021/10/24 20:03:55;;;;;;;;;2.00;2.00;;;;;;;;5029404;27;112973;-73
2021/10/24 20:06:21;;;;;;;;;5.00;2.00;;;;;;;;5022189;27;112448;-72
2021/10/24 20:08:46;;;;;;;;;1.75;1.00;;;;;;;;5041234;27;113053;-76
2021/10/24 20:11:12;;;;;;;;;0.00;0.00;;;;;;;;5021381;27;113119;-75
2021/10/24 20:13:38;;;;;;;;;1.00;1.00;;;;;;;;5022304;28;112028;-75
2021/10/24 20:16:06;;;;;;;;;1.00;1.00;;;;;;;;5021710;27;113098;-74
2021/10/24 20:18:32;;;;;;;;;2.50;1.50;;;;;;;;5020590;28;112739;-75
2021/10/24 20:21:00;;;;;;;;;1.00;1.00;;;;;;;;5020599;28;112046;-76
2021/10/24 20:23:26;;;;;;;;;1.00;1.00;;;;;;;;5021435;28;111928;-72
2021/10/24 20:25:52;;;;;;;;;2.00;2.00;;;;;;;;5020208;27;113645;-73
2021/10/24 20:28:18;;;;;;;;;5.75;2.00;;;;;;;;5021546;28;111681;-73
2021/10/24 20:30:43;;;;;;;;;3.50;1.50;;;;;;;;5024474;27;112909;-72
2021/10/24 20:33:12;;;;;;;;;1.00;1.00;;;;;;;;5022102;28;112081;-76
2021/10/24 20:35:37;;;;;;;;;0.25;0.25;;;;;;;;5022093;28;112341;-75
2021/10/24 20:38:02;;;;;;;;;1.00;1.00;;;;;;;;5021031;27;112385;-76
2021/10/24 20:40:28;;;;;;;;;2.00;1.00;;;;;;;;5021954;27;111935;-76
2021/10/24 20:42:53;;;;;;;;;0.00;0.00;;;;;;;;5022151;28;111889;-76
2021/10/24 20:45:18;;;;;;;;;0.00;0.00;;;;;;;;5020571;27;113577;-76
2021/10/24 20:47:44;;;;;;;;;3.00;1.00;;;;;;;;5021394;28;112405;-76
2021/10/24 20:50:09;;;;;;;;;0.00;0.00;;;;;;;;5021741;28;111762;-76
2021/10/24 20:52:35;;;;;;;;;1.00;1.00;;;;;;;;5023541;27;112352;-76
2021/10/24 20:55:00;;;;;;;;;0.00;0.00;;;;;;;;5021575;28;113126;-75
2021/10/24 20:57:25;;;;;;;;;2.50;0.75;;;;;;;;5019583;27;112336;-77
2021/10/24 20:59:52;;;;;;;;;1.00;1.00;;;;;;;;5019522;28;112189;-73
2021/10/24 21:02:18;;;;;;;;;0.25;0.25;;;;;;;;5020663;28;112296;-73
2021/10/24 21:04:43;;;;;;;;;0.00;0.00;;;;;;;;5019206;28;112873;-72
2021/10/24 21:07:17;;;;;;;;;0.00;0.00;;;;;;;;5019441;27;112025;-73
2021/10/24 21:09:43;;;;;;;;;1.00;0.25;;;;;;;;5020562;27;112343;-74
2021/10/24 21:12:08;;;;;;;;;0.00;0.00;;;;;;;;5024190;27;112367;-72
2021/10/24 21:14:39;;;;;;;;;2.00;0.75;;;;;;;;5044581;27;112309;-73
2021/10/24 21:17:04;;;;;;;;;1.00;1.00;;;;;;;;5037478;27;113761;-73
2021/10/24 21:19:29;;;;;;;;;0.00;0.00;;;;;;;;5041299;27;112241;-73
2021/10/24 21:21:55;;;;;;;;;1.00;0.00;;;;;;;;5040515;27;112672;-73
2021/10/24 21:24:20;;;;;;;;;1.00;0.00;;;;;;;;5033888;27;112624;-73
2021/10/24 21:26:45;;;;;;;;;0.50;0.00;;;;;;;;5029205;27;112044;-73
2021/10/24 21:29:11;;;;;;;;;0.25;0.25;;;;;;;;5019224;27;112205;-72
2021/10/24 21:31:36;;;;;;;;;0.00;0.00;;;;;;;;5017833;27;112674;-73
2021/10/24 21:34:01;;;;;;;;;0.00;0.00;;;;;;;;5024058;28;111977;-74
2021/10/24 21:36:27;;;;;;;;;0.00;0.00;;;;;;;;4963038;27;115279;-74
2021/10/24 21:38:52;;;;;;;;;1.00;1.00;;;;;;;;5060200;27;112295;-73
2021/10/24 21:41:20;;;;;;;;;1.00;0.00;;;;;;;;5068501;27;111882;-74
2021/10/24 21:43:46;;;;;;;;;0.25;0.25;;;;;;;;5080127;27;113942;-72
2021/10/24 21:46:11;;;;;;;;;0.00;0.00;;;;;;;;5079614;27;112075;-73
2021/10/24 21:48:36;;;;;;;;;0.00;0.00;;;;;;;;5080374;27;111955;-73
2021/10/24 21:51:02;;;;;;;;;0.00;0.00;;;;;;;;5080606;27;112423;-73
2021/10/24 21:53:28;;;;;;;;;1.00;0.00;;;;;;;;5081207;27;112449;-73
2021/10/24 21:55:53;;;;;;;;;0.00;0.00;;;;;;;;5083593;27;111978;-73
2021/10/24 21:58:18;;;;;;;;;2.50;0.00;;;;;;;;5081482;27;111892;-71
2021/10/24 22:00:43;;;;;;;;;0.00;0.00;;;;;;;;5081079;27;111738;-73
2021/10/24 22:03:09;;;;;;;;;0.00;0.00;;;;;;;;5079701;27;113501;-73
2021/10/24 22:05:34;;;;;;;;;0.50;0.50;;;;;;;;5085615;27;112265;-73
2021/10/24 22:08:00;;;;;;;;;0.00;0.00;;;;;;;;5085489;27;112130;-71
2021/10/24 22:10:25;;;;;;;;;0.25;0.25;;;;;;;;5084474;27;112395;-72
2021/10/24 22:12:50;;;;;;;;;0.00;0.00;;;;;;;;5085409;27;111710;-72
2021/10/24 22:15:17;;;;;;;;;0.25;0.00;;;;;;;;5100771;27;114508;-72
2021/10/24 22:17:43;;;;;;;;;1.00;0.00;;;;;;;;5087251;27;113367;-72
2021/10/24 22:20:08;;;;;;;;;0.00;0.00;;;;;;;;5084191;27;111755;-72
2021/10/24 22:22:35;;;;;;;;;0.00;0.00;;;;;;;;5083419;27;111667;-72
2021/10/24 22:25:00;;;;;;;;;0.00;0.00;;;;;;;;5084656;27;111783;-72
2021/10/24 22:27:26;;;;;;;;;0.00;0.00;;;;;;;;5085048;27;112053;-72
2021/10/24 22:29:51;;;;;;;;;0.00;0.00;;;;;;;;5083870;27;112317;-72
2021/10/24 22:32:16;;;;;;;;;0.00;0.00;;;;;;;;5084819;27;112083;-72
2021/10/24 22:34:42;;;;;;;;;0.00;0.00;;;;;;;;5084672;27;111775;-72
2021/10/24 22:37:07;;;;;;;;;0.00;0.00;;;;;;;;5083553;27;112464;-72
2021/10/24 22:39:33;;;;;;;;;0.00;0.00;;;;;;;;5088374;27;112139;-72
2021/10/24 22:42:01;;;;;;;;;0.00;0.00;;;;;;;;5080886;27;113600;-72
2021/10/24 22:44:26;;;;;;;;;0.00;0.00;;;;;;;;5084112;27;111920;-72
2021/10/24 22:46:52;;;;;;;;;0.00;0.00;;;;;;;;5084492;27;112618;-72
2021/10/24 22:49:18;;;;;;;;;2.00;1.00;;;;;;;;5083056;27;112645;-72
2021/10/24 22:51:44;;;;;;;;;0.00;0.00;;;;;;;;5084132;27;112211;-72
2021/10/24 22:54:09;;;;;;;;;1.00;0.00;;;;;;;;5099777;27;114768;-72
2021/10/24 22:56:35;;;;;;;;;0.75;0.00;;;;;;;;5082847;27;112417;-72
2021/10/24 22:59:00;;;;;;;;;0.00;0.00;;;;;;;;5083651;27;111758;-72
2021/10/24 23:01:26;;;;;;;;;0.00;0.00;;;;;;;;5086906;27;111828;-72
2021/10/24 23:03:52;;;;;;;;;0.00;0.00;;;;;;;;5084303;27;112035;-72
2021/10/24 23:06:17;;;;;;;;;1.75;0.00;;;;;;;;5084280;27;112139;-73
2021/10/24 23:08:42;;;;;;;;;0.00;0.00;;;;;;;;5082826;27;112808;-72
2021/10/24 23:11:08;;;;;;;;;0.00;0.00;;;;;;;;5084059;27;112148;-72
2021/10/24 23:13:33;;;;;;;;;1.00;0.00;;;;;;;;5082375;27;113074;-72
2021/10/24 23:15:58;;;;;;;;;0.00;0.00;;;;;;;;5082853;27;112267;-72
2021/10/24 23:18:24;;;;;;;;;1.00;0.00;;;;;;;;5083211;27;111816;-72
2021/10/24 23:20:49;;;;;;;;;0.00;0.00;;;;;;;;5083720;27;112375;-72
2021/10/24 23:23:14;;;;;;;;;0.00;0.00;;;;;;;;5086477;27;112240;-72
2021/10/24 23:25:40;;;;;;;;;0.00;0.00;;;;;;;;5083719;27;111719;-72
2021/10/24 23:28:05;;;;;;;;;0.00;0.00;;;;;;;;5082229;27;113615;-79
2021/10/24 23:30:31;;;;;;;;;0.00;0.00;;;;;;;;5084238;27;111742;-74
2021/10/24 23:32:56;;;;;;;;;1.00;0.00;;;;;;;;5083546;27;111975;-73
2021/10/24 23:35:22;;;;;;;;;1.00;0.00;;;;;;;;5081512;27;114926;-73
2021/10/24 23:37:47;;;;;;;;;0.00;0.00;;;;;;;;5081953;27;111925;-73
2021/10/24 23:40:12;;;;;;;;;0.75;0.75;;;;;;;;5083813;27;112082;-73
2021/10/24 23:42:38;;;;;;;;;1.00;0.00;;;;;;;;5086070;27;112588;-72
2021/10/24 23:45:04;;;;;;;;;2.00;1.00;;;;;;;;5083420;27;112216;-73
2021/10/24 23:47:29;;;;;;;;;3.50;1.00;;;;;;;;5081520;27;112635;-73
2021/10/24 23:49:55;;;;;;;;;1.00;1.00;;;;;;;;5083370;27;112061;-73
2021/10/24 23:52:20;;;;;;;;;1.00;1.00;;;;;;;;5084174;27;111702;-73
2021/10/24 23:54:45;;;;;;;;;2.00;1.00;;;;;;;;5098314;27;113475;-74
2021/10/24 23:57:11;;;;;;;;;1.00;1.00;;;;;;;;5083515;27;111617;-74
2021/10/24 23:59:37;;;;;;;;;0.75;0.75;;;;;;;;5083094;27;113661;-75
